Impacts TAF Board
For situational awareness. Not to be used for flight planning purposes.
IDs:

KCLT - Charlotte/Douglas In, NC, US

Issued at 1554 UTC 16 Jun 2019
Updated at 1639 UTC 16 Jun 2019
Potential Impact None Slight Moderate High
Time<<17/17Z 17/18Z 17/19Z 17/20Z 17/21Z 17/22Z 17/23Z 18/00Z 18/01Z 18/02Z 18/03Z 18/04Z 18/05Z
Type PRVL
VIS >6
CIG --
Cover FEW
FltCat VFR
WX --
WDir 200
WSpd 5
WGst --
Raw TAF
KCLT 161554Z 1616/1718 23010G17KT P6SM FEW029 BKN250
  FM170100 20005KT P6SM FEW180


METAR Board
Radar Display
Forecast Discussion
For situational awareness. Not to be used for flight planning purposes.